createdAt,value
2023-05-19T00:00:09.624Z,575.00
2023-05-19T00:01:10.510Z,572.00
2023-05-19T00:02:10.690Z,574.00
2023-05-19T00:03:09.711Z,575.00
2023-05-19T00:04:10.818Z,574.00
2023-05-19T00:05:09.615Z,577.00
2023-05-19T00:06:09.959Z,569.00
2023-05-19T00:07:09.811Z,579.00
2023-05-19T00:08:10.719Z,580.00
2023-05-19T00:09:09.949Z,577.00
2023-05-19T00:10:10.961Z,576.00
2023-05-19T00:11:10.778Z,576.00
2023-05-19T00:12:10.844Z,569.00
2023-05-19T00:13:09.847Z,574.00
2023-05-19T00:14:10.152Z,579.00
2023-05-19T00:15:10.043Z,573.00
2023-05-19T00:16:10.248Z,571.00
2023-05-19T00:17:11.117Z,574.00
2023-05-19T00:18:10.277Z,574.00
2023-05-19T00:19:11.184Z,575.00
2023-05-19T00:20:10.302Z,583.00
2023-05-19T00:21:10.452Z,578.00
2023-05-19T00:22:10.205Z,576.00
2023-05-19T00:23:10.253Z,577.00
2023-05-19T00:24:10.505Z,577.00
2023-05-19T00:25:11.286Z,577.00
2023-05-19T00:26:11.347Z,574.00
2023-05-19T00:27:10.373Z,575.00
2023-05-19T00:28:10.422Z,576.00
2023-05-19T00:29:10.476Z,579.00
2023-05-19T00:30:11.807Z,578.00
2023-05-19T00:31:10.507Z,576.00
2023-05-19T00:32:11.666Z,579.00
2023-05-19T00:33:10.598Z,578.00
2023-05-19T00:34:10.649Z,574.00
2023-05-19T00:35:10.647Z,580.00
2023-05-19T00:36:10.795Z,576.00
2023-05-19T00:37:10.858Z,574.00
2023-05-19T00:38:12.004Z,577.00
2023-05-19T00:39:11.066Z,576.00
2023-05-19T00:40:11.929Z,576.00
2023-05-19T00:41:10.977Z,577.00
2023-05-19T00:42:12.151Z,578.00
2023-05-19T00:43:11.160Z,574.00
2023-05-19T00:44:12.234Z,576.00
2023-05-19T00:45:12.095Z,576.00
2023-05-19T00:46:11.349Z,581.00
2023-05-19T00:47:11.129Z,582.00
2023-05-19T00:48:11.097Z,579.00
2023-05-19T00:49:12.113Z,579.00
2023-05-19T00:50:11.143Z,571.00
2023-05-19T00:51:11.354Z,579.00
2023-05-19T00:52:12.246Z,578.00
2023-05-19T00:53:11.246Z,573.00
2023-05-19T00:54:12.408Z,576.00
2023-05-19T00:55:11.340Z,578.00
2023-05-19T00:56:12.444Z,579.00
2023-05-19T00:57:12.584Z,581.00
2023-05-19T00:58:11.431Z,579.00
2023-05-19T00:59:12.520Z,573.00
2023-05-19T01:00:11.616Z,581.00
2023-05-19T01:01:11.716Z,576.00
2023-05-19T01:02:11.542Z,576.00
2023-05-19T01:03:12.754Z,575.00
2023-05-19T01:04:11.670Z,575.00
2023-05-19T01:05:12.996Z,580.00
2023-05-19T01:06:12.838Z,579.00
2023-05-19T01:07:11.737Z,576.00
2023-05-19T01:08:13.010Z,575.00
2023-05-19T01:09:12.777Z,577.00
2023-05-19T01:10:11.773Z,576.00
2023-05-19T01:11:12.986Z,571.00
2023-05-19T01:12:12.903Z,575.00
2023-05-19T01:13:13.006Z,574.00
2023-05-19T01:14:12.111Z,577.00
2023-05-19T01:15:11.867Z,570.00
2023-05-19T01:16:13.136Z,578.00
2023-05-19T01:17:12.180Z,572.00
2023-05-19T01:18:13.297Z,575.00
2023-05-19T01:19:12.001Z,573.00
2023-05-19T01:20:12.016Z,571.00
2023-05-19T01:21:13.029Z,576.00
2023-05-19T01:22:12.182Z,573.00
2023-05-19T01:23:12.094Z,569.00
2023-05-19T01:24:13.374Z,575.00
2023-05-19T01:25:13.330Z,572.00
2023-05-19T01:26:12.134Z,571.00
2023-05-19T01:27:13.196Z,577.00
2023-05-19T01:28:12.219Z,576.00
2023-05-19T01:29:12.235Z,573.00
2023-05-19T01:30:13.258Z,576.00
2023-05-19T01:31:12.238Z,575.00
2023-05-19T01:32:12.444Z,575.00
2023-05-19T01:33:12.406Z,574.00
2023-05-19T01:34:12.312Z,574.00
2023-05-19T01:35:12.429Z,576.00
2023-05-19T01:36:13.369Z,572.00
2023-05-19T01:37:12.621Z,576.00
2023-05-19T01:38:12.606Z,572.00
2023-05-19T01:39:13.556Z,572.00
2023-05-19T01:40:12.596Z,571.00
2023-05-19T01:41:13.655Z,574.00
2023-05-19T01:42:12.801Z,572.00
2023-05-19T01:43:12.753Z,571.00
2023-05-19T01:44:13.795Z,571.00
2023-05-19T01:45:12.670Z,573.00
2023-05-19T01:46:13.708Z,574.00
2023-05-19T01:47:12.821Z,570.00
2023-05-19T01:48:13.769Z,569.00
2023-05-19T01:49:13.889Z,569.00
2023-05-19T01:50:13.763Z,571.00
2023-05-19T01:51:12.814Z,574.00
2023-05-19T01:52:12.800Z,572.00
2023-05-19T01:53:12.795Z,575.00
2023-05-19T01:54:13.810Z,577.00
2023-05-19T01:55:12.885Z,570.00
2023-05-19T01:56:14.148Z,575.00
2023-05-19T01:57:12.910Z,570.00
2023-05-19T01:58:14.114Z,573.00
2023-05-19T01:59:13.099Z,574.00
2023-05-19T02:00:13.982Z,577.00
2023-05-19T02:01:13.046Z,576.00
2023-05-19T02:02:13.190Z,572.00
2023-05-19T02:03:14.352Z,575.00
2023-05-19T02:04:14.144Z,575.00
2023-05-19T02:05:13.237Z,575.00
2023-05-19T02:06:13.279Z,575.00
2023-05-19T02:07:14.331Z,572.00
2023-05-19T02:08:14.167Z,574.00
2023-05-19T02:09:13.390Z,577.00
2023-05-19T02:10:13.414Z,574.00
2023-05-19T02:11:13.286Z,576.00
2023-05-19T02:12:13.360Z,576.00
2023-05-19T02:13:14.305Z,576.00
2023-05-19T02:14:14.354Z,574.00
2023-05-19T02:15:14.442Z,572.00
2023-05-19T02:16:14.412Z,574.00
2023-05-19T02:17:13.564Z,568.00
2023-05-19T02:18:13.467Z,575.00
2023-05-19T02:19:14.805Z,572.00
2023-05-19T02:20:14.615Z,576.00
2023-05-19T02:21:13.674Z,576.00
2023-05-19T02:22:14.617Z,573.00
2023-05-19T02:23:13.892Z,574.00
2023-05-19T02:24:13.684Z,578.00
2023-05-19T02:25:13.861Z,576.00
2023-05-19T02:26:13.865Z,578.00
2023-05-19T02:27:13.776Z,571.00
2023-05-19T02:28:13.797Z,576.00
2023-05-19T02:29:13.929Z,574.00
2023-05-19T02:30:14.936Z,570.00
2023-05-19T02:31:14.913Z,576.00
2023-05-19T02:32:13.971Z,572.00
2023-05-19T02:33:13.929Z,571.00
2023-05-19T02:34:14.153Z,576.00
2023-05-19T02:35:15.217Z,571.00
2023-05-19T02:36:14.993Z,572.00
2023-05-19T02:37:15.299Z,567.00
2023-05-19T02:38:15.095Z,573.00
2023-05-19T02:39:15.092Z,569.00
2023-05-19T02:40:14.206Z,569.00
2023-05-19T02:41:14.268Z,572.00
2023-05-19T02:42:14.446Z,572.00
2023-05-19T02:43:14.311Z,572.00
2023-05-19T02:44:14.262Z,572.00
2023-05-19T02:45:14.238Z,565.00
2023-05-19T02:46:14.499Z,569.00
2023-05-19T02:47:15.384Z,566.00
2023-05-19T02:48:14.666Z,570.00
2023-05-19T02:49:14.445Z,571.00
2023-05-19T02:50:14.560Z,571.00
2023-05-19T02:51:14.628Z,571.00
2023-05-19T02:52:15.675Z,571.00
2023-05-19T02:53:14.461Z,571.00
2023-05-19T02:54:14.542Z,569.00
2023-05-19T02:55:15.708Z,571.00
2023-05-19T02:56:15.644Z,569.00
2023-05-19T02:57:15.783Z,568.00
2023-05-19T02:58:15.724Z,568.00
2023-05-19T02:59:14.831Z,567.00
2023-05-19T03:00:15.927Z,567.00
2023-05-19T03:01:15.949Z,568.00
2023-05-19T03:02:15.821Z,570.00
2023-05-19T03:03:15.252Z,569.00
2023-05-19T03:04:15.057Z,565.00
2023-05-19T03:05:14.827Z,569.00
2023-05-19T03:06:14.853Z,567.00
2023-05-19T03:07:16.190Z,565.00
2023-05-19T03:08:14.955Z,570.00
2023-05-19T03:09:15.100Z,571.00
2023-05-19T03:10:15.000Z,565.00
2023-05-19T03:11:15.109Z,565.00
2023-05-19T03:12:16.205Z,568.00
2023-05-19T03:13:15.345Z,566.00
2023-05-19T03:14:16.221Z,563.00
2023-05-19T03:15:16.372Z,569.00
2023-05-19T03:16:15.334Z,571.00
2023-05-19T03:17:16.226Z,572.00
2023-05-19T03:18:16.533Z,564.00
2023-05-19T03:19:15.226Z,566.00
2023-05-19T03:20:15.253Z,564.00
2023-05-19T03:21:15.279Z,565.00
2023-05-19T03:22:15.551Z,569.00
2023-05-19T03:23:16.472Z,571.00
2023-05-19T03:24:15.314Z,568.00
2023-05-19T03:25:16.522Z,570.00
2023-05-19T03:26:15.587Z,566.00
2023-05-19T03:27:16.396Z,576.00
2023-05-19T03:28:16.709Z,571.00
2023-05-19T03:29:16.652Z,573.00
2023-05-19T03:30:15.654Z,573.00
2023-05-19T03:31:15.630Z,564.00
2023-05-19T03:32:15.714Z,567.00
2023-05-19T03:33:16.950Z,570.00
2023-05-19T03:34:16.772Z,569.00
2023-05-19T03:35:15.608Z,572.00
2023-05-19T03:36:15.762Z,572.00
2023-05-19T03:37:15.777Z,572.00
2023-05-19T03:38:16.992Z,569.00
2023-05-19T03:39:15.955Z,573.00
2023-05-19T03:40:15.748Z,571.00
2023-05-19T03:41:15.822Z,575.00
2023-05-19T03:42:15.835Z,568.00
2023-05-19T03:43:15.882Z,566.00
2023-05-19T03:44:15.925Z,571.00
2023-05-19T03:45:15.858Z,569.00
2023-05-19T03:46:16.147Z,571.00
2023-05-19T03:47:16.892Z,572.00
2023-05-19T03:48:16.555Z,568.00
2023-05-19T03:49:16.950Z,570.00
2023-05-19T03:50:15.964Z,570.00
2023-05-19T03:51:16.001Z,568.00
2023-05-19T03:52:15.992Z,571.00
2023-05-19T03:53:16.026Z,570.00
2023-05-19T03:54:16.054Z,573.00
2023-05-19T03:55:17.123Z,574.00
2023-05-19T03:56:16.245Z,569.00
2023-05-19T03:57:17.184Z,575.00
2023-05-19T03:58:17.195Z,574.00
2023-05-19T03:59:17.236Z,566.00
2023-05-19T04:00:16.241Z,569.00
2023-05-19T04:01:16.291Z,572.00
2023-05-19T04:02:17.471Z,570.00
2023-05-19T04:03:17.460Z,564.00
2023-05-19T04:04:16.377Z,564.00
2023-05-19T04:05:16.374Z,563.00
2023-05-19T04:06:17.465Z,566.00
2023-05-19T04:07:16.697Z,564.00
2023-05-19T04:08:17.531Z,565.00
2023-05-19T04:09:17.499Z,569.00
2023-05-19T04:10:16.576Z,565.00
2023-05-19T04:11:17.573Z,563.00
2023-05-19T04:12:17.584Z,566.00
2023-05-19T04:13:17.807Z,569.00
2023-05-19T04:14:16.642Z,565.00
2023-05-19T04:15:16.683Z,568.00
2023-05-19T04:16:17.867Z,563.00
2023-05-19T04:17:17.791Z,566.00
2023-05-19T04:18:17.765Z,565.00
2023-05-19T04:19:17.867Z,567.00
2023-05-19T04:20:17.837Z,563.00
2023-05-19T04:21:17.834Z,569.00
2023-05-19T04:22:16.896Z,566.00
2023-05-19T04:23:16.943Z,561.00
2023-05-19T04:24:16.938Z,567.00
2023-05-19T04:25:16.964Z,568.00
2023-05-19T04:26:18.023Z,572.00
2023-05-19T04:27:18.040Z,568.00
2023-05-19T04:28:18.140Z,571.00
2023-05-19T04:29:18.625Z,567.00
2023-05-19T04:30:18.551Z,563.00
2023-05-19T04:31:17.139Z,568.00
2023-05-19T04:32:18.229Z,567.00
2023-05-19T04:33:18.185Z,570.00
2023-05-19T04:34:18.206Z,563.00
2023-05-19T04:35:18.248Z,568.00
2023-05-19T04:36:18.264Z,567.00
2023-05-19T04:37:17.321Z,569.00
2023-05-19T04:38:18.345Z,562.00
2023-05-19T04:39:18.390Z,567.00
2023-05-19T04:40:17.398Z,564.00
2023-05-19T04:41:18.511Z,566.00
2023-05-19T04:42:18.435Z,561.00
2023-05-19T04:43:17.467Z,566.00
2023-05-19T04:44:17.481Z,566.00
2023-05-19T04:45:18.533Z,568.00
2023-05-19T04:46:18.542Z,568.00
2023-05-19T04:47:18.567Z,562.00
2023-05-19T04:48:18.585Z,563.00
2023-05-19T04:49:17.581Z,569.00
2023-05-19T04:50:17.598Z,568.00
2023-05-19T04:51:17.625Z,569.00
2023-05-19T04:52:18.606Z,564.00
2023-05-19T04:53:18.620Z,565.00
2023-05-19T04:54:17.666Z,562.00
2023-05-19T04:55:18.774Z,566.00
2023-05-19T04:56:18.675Z,568.00
2023-05-19T04:57:18.686Z,564.00
2023-05-19T04:58:18.694Z,566.00
2023-05-19T04:59:18.687Z,567.00
2023-05-19T05:00:18.739Z,563.00
2023-05-19T05:01:18.810Z,561.00
2023-05-19T05:02:18.813Z,565.00
2023-05-19T05:03:17.929Z,564.00
2023-05-19T05:04:17.795Z,562.00
2023-05-19T05:05:18.855Z,562.00
2023-05-19T05:06:18.826Z,564.00
2023-05-19T05:07:17.867Z,569.00
2023-05-19T05:08:18.824Z,567.00
2023-05-19T05:09:18.855Z,565.00
2023-05-19T05:10:17.875Z,563.00
2023-05-19T05:11:17.905Z,565.00
2023-05-19T05:12:18.911Z,564.00
2023-05-19T05:13:18.949Z,567.00
2023-05-19T05:14:17.971Z,565.00
2023-05-19T05:15:18.012Z,566.00
2023-05-19T05:16:18.070Z,565.00
2023-05-19T05:17:18.029Z,561.00
2023-05-19T05:18:19.041Z,565.00
2023-05-19T05:19:18.089Z,564.00
2023-05-19T05:20:19.299Z,567.00
2023-05-19T05:21:18.107Z,568.00
2023-05-19T05:22:19.123Z,564.00
2023-05-19T05:23:18.130Z,564.00
2023-05-19T05:24:18.150Z,563.00
2023-05-19T05:25:18.168Z,562.00
2023-05-19T05:26:19.204Z,560.00
2023-05-19T05:27:19.245Z,561.00
2023-05-19T05:28:19.281Z,564.00
2023-05-19T05:29:19.367Z,566.00
2023-05-19T05:30:18.301Z,562.00
2023-05-19T05:31:18.332Z,562.00
2023-05-19T05:32:18.354Z,559.00
2023-05-19T05:33:19.627Z,563.00
2023-05-19T05:34:18.427Z,567.00
2023-05-19T05:35:19.446Z,564.00
2023-05-19T05:36:19.470Z,561.00
2023-05-19T05:37:18.523Z,563.00
2023-05-19T05:38:18.517Z,562.00
2023-05-19T05:39:19.517Z,560.00
2023-05-19T05:40:18.561Z,564.00
2023-05-19T05:41:19.616Z,563.00
2023-05-19T05:42:18.613Z,563.00
2023-05-19T05:43:19.755Z,564.00
2023-05-19T05:44:19.691Z,565.00
2023-05-19T05:45:18.711Z,556.00
2023-05-19T05:46:19.768Z,563.00
2023-05-19T05:47:19.941Z,560.00
2023-05-19T05:48:18.889Z,565.00
2023-05-19T05:49:19.837Z,563.00
2023-05-19T05:50:19.828Z,558.00
2023-05-19T05:51:19.847Z,561.00
2023-05-19T05:52:18.940Z,562.00
2023-05-19T05:53:18.984Z,555.00
2023-05-19T05:54:18.909Z,566.00
2023-05-19T05:55:19.932Z,561.00
2023-05-19T05:56:19.981Z,560.00
2023-05-19T05:57:18.984Z,560.00
2023-05-19T05:58:20.022Z,559.00
2023-05-19T05:59:20.063Z,561.00
2023-05-19T06:00:20.122Z,564.00
2023-05-19T06:01:20.110Z,561.00
2023-05-19T06:02:19.135Z,564.00
2023-05-19T06:03:20.255Z,562.00
2023-05-19T06:04:20.168Z,563.00
2023-05-19T06:05:19.346Z,561.00
2023-05-19T06:06:20.243Z,558.00
2023-05-19T06:07:19.225Z,565.00
2023-05-19T06:08:20.285Z,565.00
2023-05-19T06:09:19.296Z,560.00
2023-05-19T06:10:19.304Z,562.00
2023-05-19T06:11:19.362Z,560.00
2023-05-19T06:12:19.348Z,563.00
2023-05-19T06:13:20.374Z,560.00
2023-05-19T06:14:19.389Z,561.00
2023-05-19T06:15:20.530Z,561.00
2023-05-19T06:16:19.482Z,560.00
2023-05-19T06:17:19.439Z,566.00
2023-05-19T06:18:20.456Z,560.00
2023-05-19T06:19:20.511Z,558.00
2023-05-19T06:20:20.511Z,560.00
2023-05-19T06:21:20.569Z,559.00
2023-05-19T06:22:20.584Z,561.00
2023-05-19T06:23:19.571Z,559.00
2023-05-19T06:24:19.623Z,566.00
2023-05-19T06:25:19.689Z,560.00
2023-05-19T06:26:20.648Z,558.00
2023-05-19T06:27:20.693Z,564.00
2023-05-19T06:28:19.684Z,560.00
2023-05-19T06:29:19.740Z,556.00
2023-05-19T06:30:19.760Z,564.00
2023-05-19T06:31:19.850Z,562.00
2023-05-19T06:32:19.756Z,559.00
2023-05-19T06:33:19.981Z,564.00
2023-05-19T06:34:19.827Z,563.00
2023-05-19T06:35:19.854Z,561.00
2023-05-19T06:36:20.976Z,563.00
2023-05-19T06:37:20.001Z,561.00
2023-05-19T06:38:21.102Z,556.00
2023-05-19T06:39:20.989Z,561.00
2023-05-19T06:40:20.984Z,560.00
2023-05-19T06:41:21.038Z,564.00
2023-05-19T06:42:20.045Z,563.00
2023-05-19T06:43:21.083Z,562.00
2023-05-19T06:44:21.293Z,564.00
2023-05-19T06:45:20.203Z,562.00
2023-05-19T06:46:20.435Z,564.00
2023-05-19T06:47:20.200Z,565.00
2023-05-19T06:48:21.207Z,565.00
2023-05-19T06:49:20.231Z,562.00
2023-05-19T06:50:20.250Z,561.00
2023-05-19T06:51:21.277Z,559.00
2023-05-19T06:52:21.295Z,557.00
2023-05-19T06:53:21.320Z,568.00
2023-05-19T06:54:21.333Z,562.00
2023-05-19T06:55:20.412Z,570.00
2023-05-19T06:56:20.416Z,561.00
2023-05-19T06:57:21.442Z,563.00
2023-05-19T06:58:21.517Z,568.00
2023-05-19T06:59:20.518Z,566.00
2023-05-19T07:00:22.076Z,557.00
2023-05-19T07:01:20.627Z,570.00
2023-05-19T07:02:20.478Z,571.00
2023-05-19T07:03:21.596Z,565.00
2023-05-19T07:04:20.488Z,570.00
2023-05-19T07:05:21.490Z,567.00
2023-05-19T07:06:21.439Z,565.00
2023-05-19T07:07:21.441Z,566.00
2023-05-19T07:08:20.426Z,566.00
2023-05-19T07:09:21.507Z,564.00
2023-05-19T07:10:20.405Z,565.00
2023-05-19T07:11:21.423Z,556.00
2023-05-19T07:12:21.400Z,563.00
2023-05-19T07:13:21.400Z,562.00
2023-05-19T07:14:21.392Z,563.00
2023-05-19T07:15:20.412Z,561.00
2023-05-19T07:16:21.426Z,568.00
2023-05-19T07:17:21.360Z,567.00
2023-05-19T07:18:21.379Z,562.00
2023-05-19T07:19:20.458Z,563.00
2023-05-19T07:20:21.345Z,563.00
2023-05-19T07:21:20.468Z,567.00
2023-05-19T07:22:20.395Z,563.00
2023-05-19T07:23:20.317Z,563.00
2023-05-19T07:24:20.321Z,564.00
2023-05-19T07:25:21.319Z,563.00
2023-05-19T07:26:21.318Z,561.00
2023-05-19T07:27:21.378Z,564.00
2023-05-19T07:28:21.497Z,562.00
2023-05-19T07:29:21.437Z,561.00
2023-05-19T07:30:21.276Z,559.00
2023-05-19T07:31:21.322Z,560.00
2023-05-19T07:32:20.434Z,563.00
2023-05-19T07:33:20.258Z,564.00
2023-05-19T07:34:21.302Z,565.00
2023-05-19T07:35:20.371Z,563.00
2023-05-19T07:36:20.541Z,565.00
2023-05-19T07:37:21.295Z,563.00
2023-05-19T07:38:21.347Z,561.00
2023-05-19T07:39:21.445Z,560.00
2023-05-19T07:40:21.480Z,565.00
2023-05-19T07:41:20.505Z,565.00
2023-05-19T07:42:20.554Z,559.00
2023-05-19T07:43:21.624Z,560.00
2023-05-19T07:44:20.744Z,565.00
2023-05-19T07:45:20.646Z,568.00
2023-05-19T07:46:21.745Z,569.00
2023-05-19T07:47:21.702Z,568.00
2023-05-19T07:48:21.927Z,561.00
2023-05-19T07:49:20.963Z,562.00
2023-05-19T07:50:22.026Z,565.00
2023-05-19T07:51:21.961Z,566.00
2023-05-19T07:52:21.949Z,565.00
2023-05-19T07:53:22.064Z,562.00
2023-05-19T07:54:21.033Z,564.00
2023-05-19T07:55:22.077Z,565.00
2023-05-19T07:56:21.168Z,565.00
2023-05-19T07:57:21.186Z,564.00
2023-05-19T07:58:22.229Z,564.00
2023-05-19T07:59:21.370Z,566.00
2023-05-19T08:00:21.336Z,562.00
2023-05-19T08:01:21.424Z,562.00
2023-05-19T08:02:22.849Z,562.00
2023-05-19T08:03:22.630Z,565.00
2023-05-19T08:04:21.568Z,565.00
2023-05-19T08:05:21.564Z,564.00
2023-05-19T08:06:21.750Z,565.00
2023-05-19T08:07:21.737Z,569.00
2023-05-19T08:08:21.927Z,567.00
2023-05-19T08:09:21.756Z,562.00
2023-05-19T08:10:22.843Z,564.00
2023-05-19T08:11:21.855Z,561.00
2023-05-19T08:12:22.221Z,563.00
2023-05-19T08:13:23.052Z,565.00
2023-05-19T08:14:23.017Z,564.00
2023-05-19T08:15:23.005Z,565.00
2023-05-19T08:16:22.086Z,566.00
2023-05-19T08:17:22.083Z,568.00
2023-05-19T08:18:22.282Z,566.00
2023-05-19T08:19:23.298Z,565.00
2023-05-19T08:20:23.242Z,566.00
2023-05-19T08:21:23.289Z,571.00
2023-05-19T08:22:22.337Z,569.00
2023-05-19T08:23:23.439Z,563.00
2023-05-19T08:24:23.391Z,566.00
2023-05-19T08:25:23.460Z,567.00
2023-05-19T08:26:22.482Z,567.00
2023-05-19T08:27:22.569Z,569.00
2023-05-19T08:28:23.574Z,570.00
2023-05-19T08:29:22.794Z,561.00
2023-05-19T08:30:23.900Z,566.00
2023-05-19T08:31:23.724Z,565.00
2023-05-19T08:32:23.774Z,564.00
2023-05-19T08:33:23.843Z,570.00
2023-05-19T08:34:22.837Z,569.00
2023-05-19T08:35:22.973Z,565.00
2023-05-19T08:36:23.932Z,567.00
2023-05-19T08:37:23.957Z,561.00
2023-05-19T08:38:24.019Z,572.00
2023-05-19T08:39:24.171Z,567.00
2023-05-19T08:40:24.182Z,565.00
2023-05-19T08:41:24.150Z,572.00
2023-05-19T08:42:24.090Z,568.00
2023-05-19T08:43:24.230Z,571.00
2023-05-19T08:44:23.289Z,566.00
2023-05-19T08:45:23.304Z,570.00
2023-05-19T08:46:24.366Z,569.00
2023-05-19T08:47:23.412Z,567.00
2023-05-19T08:48:23.404Z,564.00
2023-05-19T08:49:25.599Z,566.00
2023-05-19T08:50:23.702Z,567.00
2023-05-19T08:51:24.563Z,572.00
2023-05-19T08:52:23.558Z,569.00
2023-05-19T08:53:33.083Z,564.00
2023-05-19T08:54:24.574Z,565.00
2023-05-19T08:55:24.663Z,565.00
2023-05-19T08:56:24.802Z,565.00
2023-05-19T08:57:23.567Z,566.00
2023-05-19T08:58:23.635Z,571.00
2023-05-19T08:59:23.598Z,564.00
2023-05-19T09:00:23.662Z,568.00
2023-05-19T09:01:24.612Z,568.00
2023-05-19T09:02:23.653Z,568.00
2023-05-19T09:03:24.213Z,562.00
2023-05-19T09:04:24.593Z,564.00
2023-05-19T09:05:24.649Z,566.00
2023-05-19T09:06:23.711Z,564.00
2023-05-19T09:07:24.510Z,565.00
2023-05-19T09:08:23.480Z,567.00
2023-05-19T09:09:24.492Z,570.00
2023-05-19T09:10:25.061Z,568.00
2023-05-19T09:11:24.524Z,567.00
2023-05-19T09:12:24.473Z,567.00
2023-05-19T09:13:24.545Z,569.00
2023-05-19T09:14:23.556Z,564.00
2023-05-19T09:15:23.756Z,571.00
2023-05-19T09:16:23.531Z,567.00
2023-05-19T09:17:24.587Z,570.00
2023-05-19T09:18:23.603Z,570.00
2023-05-19T09:19:23.595Z,570.00
2023-05-19T09:20:23.558Z,569.00
2023-05-19T09:21:24.562Z,569.00
2023-05-19T09:22:24.573Z,571.00
2023-05-19T09:23:23.566Z,572.00
2023-05-19T09:24:24.595Z,571.00
2023-05-19T09:25:24.631Z,573.00
2023-05-19T09:26:24.621Z,576.00
2023-05-19T09:27:23.663Z,573.00
2023-05-19T09:28:24.702Z,573.00
2023-05-19T09:29:24.631Z,572.00
2023-05-19T09:30:23.649Z,573.00
2023-05-19T09:31:24.630Z,576.00
2023-05-19T09:32:23.715Z,574.00
2023-05-19T09:33:24.747Z,574.00
2023-05-19T09:34:24.716Z,571.00
2023-05-19T09:35:23.690Z,575.00
2023-05-19T09:36:23.661Z,572.00
2023-05-19T09:37:24.700Z,574.00
2023-05-19T09:38:24.778Z,573.00
2023-05-19T09:39:23.938Z,571.00
2023-05-19T09:40:23.717Z,574.00
2023-05-19T09:41:24.726Z,571.00
2023-05-19T09:42:23.754Z,572.00
2023-05-19T09:43:23.791Z,573.00
2023-05-19T09:44:23.822Z,571.00
2023-05-19T09:45:23.809Z,570.00
2023-05-19T09:46:23.845Z,570.00
2023-05-19T09:47:23.856Z,571.00
2023-05-19T09:48:23.799Z,569.00
2023-05-19T09:49:23.807Z,569.00
2023-05-19T09:50:24.993Z,574.00
2023-05-19T09:51:23.836Z,569.00
2023-05-19T09:52:23.894Z,575.00
2023-05-19T09:53:23.913Z,568.00
2023-05-19T09:54:24.019Z,570.00
2023-05-19T09:55:24.907Z,571.00
2023-05-19T09:56:24.926Z,568.00
2023-05-19T09:57:25.020Z,569.00
2023-05-19T09:58:24.037Z,568.00
2023-05-19T09:59:24.093Z,572.00
2023-05-19T10:00:24.261Z,574.00
2023-05-19T10:01:25.071Z,573.00
2023-05-19T10:02:24.058Z,570.00
2023-05-19T10:03:25.212Z,571.00
2023-05-19T10:04:24.175Z,567.00
2023-05-19T10:05:25.207Z,568.00
2023-05-19T10:06:25.167Z,568.00
2023-05-19T10:07:25.199Z,569.00
2023-05-19T10:08:24.318Z,571.00
2023-05-19T10:09:24.404Z,569.00
2023-05-19T10:10:24.292Z,573.00
2023-05-19T10:11:24.327Z,569.00
2023-05-19T10:12:25.329Z,570.00
2023-05-19T10:13:25.345Z,571.00
2023-05-19T10:14:25.384Z,567.00
2023-05-19T10:15:24.483Z,568.00
2023-05-19T10:16:24.679Z,566.00
2023-05-19T10:17:24.559Z,568.00
2023-05-19T10:18:25.563Z,569.00
2023-05-19T10:19:25.861Z,560.00
2023-05-19T10:20:24.541Z,565.00
2023-05-19T10:21:25.626Z,566.00
2023-05-19T10:22:24.567Z,569.00
2023-05-19T10:23:24.704Z,567.00
2023-05-19T10:24:24.712Z,568.00
2023-05-19T10:25:24.669Z,570.00
2023-05-19T10:26:24.780Z,568.00
2023-05-19T10:27:24.715Z,567.00
2023-05-19T10:28:24.769Z,570.00
2023-05-19T10:29:25.803Z,566.00
2023-05-19T10:30:25.964Z,569.00
2023-05-19T10:31:25.849Z,564.00
2023-05-19T10:32:24.976Z,563.00
2023-05-19T10:33:24.850Z,569.00
2023-05-19T10:34:24.870Z,562.00
2023-05-19T10:35:25.981Z,565.00
2023-05-19T10:36:25.992Z,564.00
2023-05-19T10:37:24.875Z,563.00
2023-05-19T10:38:25.904Z,563.00
2023-05-19T10:39:24.955Z,561.00
2023-05-19T10:40:24.943Z,561.00
2023-05-19T10:41:25.916Z,559.00
2023-05-19T10:42:25.055Z,559.00
2023-05-19T10:43:25.962Z,558.00
2023-05-19T10:44:25.016Z,558.00
2023-05-19T10:45:25.980Z,558.00
2023-05-19T10:46:25.139Z,560.00
2023-05-19T10:47:25.096Z,557.00
2023-05-19T10:48:26.181Z,552.00
2023-05-19T10:49:26.099Z,557.00
2023-05-19T10:50:25.172Z,557.00
2023-05-19T10:51:26.097Z,553.00
2023-05-19T10:52:25.101Z,553.00
2023-05-19T10:53:26.105Z,560.00
2023-05-19T10:54:25.131Z,558.00
2023-05-19T10:55:25.141Z,559.00
2023-05-19T10:56:26.129Z,555.00
2023-05-19T10:57:25.193Z,550.00
2023-05-19T10:58:26.143Z,554.00
2023-05-19T10:59:26.041Z,552.00
2023-05-19T11:00:25.191Z,552.00
2023-05-19T11:01:26.201Z,552.00
2023-05-19T11:02:26.412Z,554.00
2023-05-19T11:03:25.248Z,558.00
2023-05-19T11:04:25.389Z,559.00
2023-05-19T11:05:25.429Z,557.00
2023-05-19T11:06:26.261Z,558.00
2023-05-19T11:07:26.243Z,556.00
2023-05-19T11:08:26.248Z,558.00
2023-05-19T11:09:37.855Z,555.00
2023-05-19T11:10:26.299Z,555.00
2023-05-19T11:11:26.266Z,556.00
2023-05-19T11:12:26.225Z,557.00
2023-05-19T11:13:26.265Z,557.00
2023-05-19T11:14:26.337Z,559.00
2023-05-19T11:15:26.338Z,553.00
2023-05-19T11:16:25.225Z,555.00
2023-05-19T11:17:25.300Z,556.00
2023-05-19T11:18:26.292Z,557.00
2023-05-19T11:19:25.307Z,551.00
2023-05-19T11:20:25.229Z,551.00
2023-05-19T11:21:25.281Z,555.00
2023-05-19T11:22:25.189Z,555.00
2023-05-19T11:23:25.188Z,556.00
2023-05-19T11:24:25.198Z,555.00
2023-05-19T11:25:26.159Z,555.00
2023-05-19T11:26:25.159Z,555.00
2023-05-19T11:27:25.138Z,554.00
2023-05-19T11:28:25.127Z,557.00
2023-05-19T11:29:25.180Z,557.00
2023-05-19T11:30:25.138Z,556.00
2023-05-19T11:31:26.168Z,558.00
2023-05-19T11:32:25.140Z,556.00
2023-05-19T11:33:26.094Z,553.00
2023-05-19T11:35:25.085Z,554.00
2023-05-19T11:36:25.164Z,555.00
2023-05-19T11:37:26.055Z,555.00
2023-05-19T11:38:26.072Z,553.00
2023-05-19T11:39:25.050Z,551.00
2023-05-19T11:40:25.172Z,550.00
2023-05-19T11:41:26.232Z,554.00
2023-05-19T11:42:26.025Z,552.00
2023-05-19T11:43:25.040Z,554.00
2023-05-19T11:44:26.005Z,552.00
2023-05-19T11:45:26.026Z,550.00
2023-05-19T11:46:26.114Z,549.00
2023-05-19T11:47:26.133Z,556.00
2023-05-19T11:48:25.041Z,558.00
2023-05-19T11:49:26.128Z,557.00
2023-05-19T11:50:25.075Z,555.00
2023-05-19T11:51:26.297Z,556.00
2023-05-19T11:52:25.961Z,556.00
2023-05-19T11:53:26.215Z,555.00
2023-05-19T11:54:24.948Z,555.00
2023-05-19T11:55:25.035Z,551.00
2023-05-19T11:56:26.048Z,552.00
2023-05-19T11:57:24.915Z,550.00
2023-05-19T11:58:25.935Z,554.00
2023-05-19T11:59:25.903Z,552.00
2023-05-19T12:00:25.910Z,555.00
2023-05-19T12:01:25.933Z,555.00
2023-05-19T12:02:25.348Z,553.00
2023-05-19T12:03:25.204Z,549.00
2023-05-19T12:04:25.880Z,554.00
2023-05-19T12:05:25.119Z,551.00
2023-05-19T12:06:24.953Z,550.00
2023-05-19T12:07:26.136Z,549.00
2023-05-19T12:08:24.910Z,551.00
2023-05-19T12:09:24.941Z,549.00
2023-05-19T12:10:25.985Z,546.00
2023-05-19T12:11:25.205Z,549.00
2023-05-19T12:12:26.020Z,551.00
2023-05-19T12:13:26.021Z,547.00
2023-05-19T12:14:25.100Z,551.00
2023-05-19T12:15:25.098Z,547.00
2023-05-19T12:16:25.139Z,550.00
2023-05-19T12:17:25.291Z,548.00
2023-05-19T12:18:25.437Z,549.00
2023-05-19T12:19:25.309Z,550.00
2023-05-19T12:20:25.249Z,547.00
2023-05-19T12:21:25.304Z,543.00
2023-05-19T12:22:26.456Z,543.00
2023-05-19T12:23:25.331Z,544.00
2023-05-19T12:24:26.418Z,547.00
2023-05-19T12:25:25.299Z,550.00
2023-05-19T12:26:25.216Z,552.00
2023-05-19T12:27:25.257Z,550.00
2023-05-19T12:28:26.212Z,547.00
2023-05-19T12:29:26.332Z,546.00